createdAt,value
2022-09-23T00:00:27.919Z,9.55
2022-09-23T00:01:27.972Z,9.55
2022-09-23T00:02:27.976Z,9.54
2022-09-23T00:03:27.903Z,9.51
2022-09-23T00:04:27.877Z,9.54
2022-09-23T00:05:27.872Z,9.50
2022-09-23T00:06:27.857Z,9.50
2022-09-23T00:07:27.869Z,9.48
2022-09-23T00:08:27.838Z,9.48
2022-09-23T00:09:27.849Z,9.48
2022-09-23T00:10:27.817Z,9.48
2022-09-23T00:11:27.810Z,9.46
2022-09-23T00:12:27.789Z,9.47
2022-09-23T00:13:27.790Z,9.46
2022-09-23T00:14:27.781Z,9.44
2022-09-23T00:15:27.769Z,9.46
2022-09-23T00:16:27.801Z,9.46
2022-09-23T00:17:27.758Z,9.46
2022-09-23T00:18:27.719Z,9.46
2022-09-23T00:19:27.741Z,9.44
2022-09-23T00:20:27.705Z,9.44
2022-09-23T00:21:27.729Z,9.43
2022-09-23T00:22:27.739Z,9.43
2022-09-23T00:23:27.761Z,9.46
2022-09-23T00:24:27.730Z,9.44
2022-09-23T00:25:27.860Z,9.43
2022-09-23T00:26:27.771Z,9.43
2022-09-23T00:27:27.773Z,9.43
2022-09-23T00:28:27.809Z,9.41
2022-09-23T00:29:27.889Z,9.43
2022-09-23T00:30:27.824Z,9.43
2022-09-23T00:31:27.810Z,9.41
2022-09-23T00:32:27.726Z,9.40
2022-09-23T00:33:27.683Z,9.41
2022-09-23T00:34:27.970Z,9.41
2022-09-23T00:35:27.759Z,9.41
2022-09-23T00:36:27.534Z,9.40
2022-09-23T00:37:27.798Z,9.39
2022-09-23T00:38:27.485Z,9.39
2022-09-23T00:39:27.495Z,9.36
2022-09-23T00:40:27.532Z,9.37
2022-09-23T00:41:27.477Z,9.34
2022-09-23T00:42:27.442Z,9.36
2022-09-23T00:43:27.439Z,9.34
2022-09-23T00:44:27.434Z,9.34
2022-09-23T00:45:27.407Z,9.34
2022-09-23T00:46:27.500Z,9.34
2022-09-23T00:47:27.390Z,9.34
2022-09-23T00:48:27.378Z,9.32
2022-09-23T00:49:27.378Z,9.32
2022-09-23T00:50:27.378Z,9.32
2022-09-23T00:51:27.371Z,9.31
2022-09-23T00:52:27.362Z,9.32
2022-09-23T00:53:27.330Z,9.31
2022-09-23T00:54:27.322Z,9.29
2022-09-23T00:55:27.326Z,9.28
2022-09-23T00:56:27.291Z,9.29
2022-09-23T00:57:27.342Z,9.28
2022-09-23T00:58:27.341Z,9.25
2022-09-23T00:59:27.351Z,9.26
2022-09-23T01:00:27.374Z,9.25
2022-09-23T01:01:27.461Z,9.22
2022-09-23T01:02:27.511Z,9.22
2022-09-23T01:03:27.450Z,9.22
2022-09-23T01:04:27.463Z,9.19
2022-09-23T01:05:27.466Z,9.16
2022-09-23T01:06:27.175Z,9.14
2022-09-23T01:07:27.205Z,9.11
2022-09-23T01:08:27.163Z,9.11
2022-09-23T01:09:27.162Z,9.08
2022-09-23T01:10:27.131Z,9.06
2022-09-23T01:11:27.512Z,9.03
2022-09-23T01:12:27.103Z,9.03
2022-09-23T01:13:27.799Z,9.02
2022-09-23T01:14:27.103Z,8.99
2022-09-23T01:15:27.090Z,9.00
2022-09-23T01:16:27.139Z,8.99
2022-09-23T01:17:27.043Z,9.00
2022-09-23T01:18:27.036Z,8.97
2022-09-23T01:19:27.051Z,8.95
2022-09-23T01:20:27.023Z,8.94
2022-09-23T01:21:27.003Z,8.92
2022-09-23T01:22:27.027Z,8.92
2022-09-23T01:23:26.983Z,8.91
2022-09-23T01:24:26.991Z,8.91
2022-09-23T01:25:26.951Z,8.89
2022-09-23T01:26:26.955Z,8.88
2022-09-23T01:27:26.943Z,8.87
2022-09-23T01:28:26.932Z,8.88
2022-09-23T01:29:26.925Z,8.87
2022-09-23T01:30:26.976Z,8.85
2022-09-23T01:31:26.898Z,8.84
2022-09-23T01:32:26.915Z,8.82
2022-09-23T01:33:26.863Z,8.84
2022-09-23T01:34:26.863Z,8.82
2022-09-23T01:35:26.844Z,8.81
2022-09-23T01:36:26.859Z,8.79
2022-09-23T01:37:26.831Z,8.81
2022-09-23T01:38:26.835Z,8.78
2022-09-23T01:39:26.800Z,8.78
2022-09-23T01:40:26.865Z,8.79
2022-09-23T01:41:26.799Z,8.78
2022-09-23T01:42:26.786Z,8.79
2022-09-23T01:43:26.763Z,8.78
2022-09-23T01:44:26.753Z,8.79
2022-09-23T01:45:26.735Z,8.81
2022-09-23T01:46:26.753Z,8.79
2022-09-23T01:47:26.723Z,8.81
2022-09-23T01:48:26.741Z,8.82
2022-09-23T01:49:26.683Z,8.79
2022-09-23T01:50:26.699Z,8.81
2022-09-23T01:51:26.671Z,8.84
2022-09-23T01:52:26.684Z,8.84
2022-09-23T01:53:26.640Z,8.82
2022-09-23T01:54:26.654Z,8.84
2022-09-23T01:55:26.628Z,8.85
2022-09-23T01:56:26.625Z,8.87
2022-09-23T01:57:26.612Z,8.88
2022-09-23T01:58:26.607Z,8.87
2022-09-23T01:59:26.582Z,8.88
2022-09-23T02:00:26.572Z,8.88
2022-09-23T02:01:26.598Z,8.88
2022-09-23T02:02:26.637Z,8.88
2022-09-23T02:03:26.552Z,8.88
2022-09-23T02:04:26.525Z,8.87
2022-09-23T02:05:26.500Z,8.88
2022-09-23T02:06:26.513Z,8.88
2022-09-23T02:07:26.516Z,8.88
2022-09-23T02:08:26.484Z,8.88
2022-09-23T02:09:26.464Z,8.88
2022-09-23T02:10:26.471Z,8.88
2022-09-23T02:11:26.432Z,8.87
2022-09-23T02:12:26.445Z,8.89
2022-09-23T02:13:26.428Z,8.88
2022-09-23T02:14:26.416Z,8.88
2022-09-23T02:15:26.416Z,8.89
2022-09-23T02:16:26.484Z,8.88
2022-09-23T02:17:26.389Z,8.89
2022-09-23T02:18:26.377Z,8.89
2022-09-23T02:19:26.354Z,8.91
2022-09-23T02:20:26.852Z,8.91
2022-09-23T02:21:26.324Z,8.89
2022-09-23T02:22:26.336Z,8.91
2022-09-23T02:23:26.314Z,8.92
2022-09-23T02:24:26.296Z,8.91
2022-09-23T02:25:26.288Z,8.91
2022-09-23T02:26:26.284Z,8.91
2022-09-23T02:27:26.267Z,8.91
2022-09-23T02:28:26.272Z,8.91
2022-09-23T02:29:26.237Z,8.91
2022-09-23T02:30:26.244Z,8.92
2022-09-23T02:31:26.255Z,8.89
2022-09-23T02:32:26.216Z,8.89
2022-09-23T02:33:26.216Z,8.89
2022-09-23T02:34:26.194Z,8.88
2022-09-23T02:35:26.172Z,8.88
2022-09-23T02:36:26.164Z,8.89
2022-09-23T02:37:26.151Z,8.87
2022-09-23T02:38:26.146Z,8.87
2022-09-23T02:39:26.164Z,8.88
2022-09-23T02:40:26.162Z,8.88
2022-09-23T02:41:26.124Z,8.85
2022-09-23T02:42:26.106Z,8.85
2022-09-23T02:43:26.077Z,8.85
2022-09-23T02:44:26.073Z,8.82
2022-09-23T02:45:26.072Z,8.81
2022-09-23T02:46:26.056Z,8.79
2022-09-23T02:47:26.042Z,8.79
2022-09-23T02:48:26.026Z,8.79
2022-09-23T02:49:26.030Z,8.76
2022-09-23T02:50:26.076Z,8.76
2022-09-23T02:51:26.092Z,8.74
2022-09-23T02:52:26.116Z,8.76
2022-09-23T02:53:26.050Z,8.74
2022-09-23T02:54:26.154Z,8.73
2022-09-23T02:55:26.180Z,8.73
2022-09-23T02:56:26.249Z,8.74
2022-09-23T02:57:25.921Z,8.71
2022-09-23T02:58:25.921Z,8.71
2022-09-23T02:59:25.908Z,8.71
2022-09-23T03:00:26.418Z,8.70
2022-09-23T03:01:25.932Z,8.71
2022-09-23T03:02:25.933Z,8.70
2022-09-23T03:03:25.853Z,8.70
2022-09-23T03:04:25.848Z,8.70
2022-09-23T03:05:25.827Z,8.71
2022-09-23T03:06:25.837Z,8.71
2022-09-23T03:07:25.837Z,8.70
2022-09-23T03:08:25.812Z,8.70
2022-09-23T03:09:25.797Z,8.70
2022-09-23T03:10:25.797Z,8.69
2022-09-23T03:11:25.757Z,8.67
2022-09-23T03:12:25.758Z,8.66
2022-09-23T03:13:29.284Z,8.66
2022-09-23T03:14:25.757Z,8.64
2022-09-23T03:15:25.738Z,8.66
2022-09-23T03:16:25.807Z,8.64
2022-09-23T03:17:25.697Z,8.60
2022-09-23T03:18:25.718Z,8.60
2022-09-23T03:19:25.673Z,8.58
2022-09-23T03:20:26.265Z,8.56
2022-09-23T03:21:25.666Z,8.55
2022-09-23T03:22:25.645Z,8.53
2022-09-23T03:23:25.629Z,8.53
2022-09-23T03:24:25.622Z,8.52
2022-09-23T03:25:25.617Z,8.51
2022-09-23T03:26:25.637Z,8.52
2022-09-23T03:27:25.602Z,8.46
2022-09-23T03:28:25.577Z,8.45
2022-09-23T03:29:25.570Z,8.46
2022-09-23T03:30:25.566Z,8.46
2022-09-23T03:31:25.565Z,8.45
2022-09-23T03:32:25.529Z,8.46
2022-09-23T03:33:28.470Z,8.45
2022-09-23T03:34:25.539Z,8.44
2022-09-23T03:35:25.498Z,8.44
2022-09-23T03:36:25.517Z,8.44
2022-09-23T03:37:25.466Z,8.44
2022-09-23T03:38:25.477Z,8.42
2022-09-23T03:39:25.461Z,8.38
2022-09-23T03:40:25.507Z,8.41
2022-09-23T03:41:25.445Z,8.38
2022-09-23T03:42:25.433Z,8.41
2022-09-23T03:43:25.397Z,8.41
2022-09-23T03:44:25.405Z,8.37
2022-09-23T03:45:25.391Z,8.36
2022-09-23T03:46:25.398Z,8.36
2022-09-23T03:47:25.357Z,8.36
2022-09-23T03:48:25.352Z,8.36
2022-09-23T03:49:25.345Z,8.36
2022-09-23T03:50:25.370Z,8.33
2022-09-23T03:51:25.317Z,8.36
2022-09-23T03:52:25.315Z,8.36
2022-09-23T03:53:25.298Z,8.34
2022-09-23T03:54:25.298Z,8.36
2022-09-23T03:55:25.270Z,8.36
2022-09-23T03:56:25.278Z,8.34
2022-09-23T03:57:25.371Z,8.36
2022-09-23T03:58:25.246Z,8.34
2022-09-23T03:59:25.226Z,8.34
2022-09-23T04:00:25.218Z,8.34
2022-09-23T04:01:25.278Z,8.33
2022-09-23T04:02:25.254Z,8.33
2022-09-23T04:03:25.199Z,8.34
2022-09-23T04:04:25.179Z,8.31
2022-09-23T04:05:25.160Z,8.31
2022-09-23T04:06:25.195Z,8.31
2022-09-23T04:07:25.131Z,8.31
2022-09-23T04:08:25.130Z,8.30
2022-09-23T04:09:25.138Z,8.31
2022-09-23T04:10:25.125Z,8.28
2022-09-23T04:11:25.091Z,8.28
2022-09-23T04:12:25.098Z,8.30
2022-09-23T04:13:25.063Z,8.30
2022-09-23T04:14:25.069Z,8.28
2022-09-23T04:15:25.040Z,8.28
2022-09-23T04:16:25.091Z,8.28
2022-09-23T04:17:25.029Z,8.27
2022-09-23T04:18:25.020Z,8.28
2022-09-23T04:19:25.000Z,8.27
2022-09-23T04:20:25.002Z,8.26
2022-09-23T04:21:24.968Z,8.26
2022-09-23T04:22:24.975Z,8.26
2022-09-23T04:23:25.172Z,8.24
2022-09-23T04:24:24.952Z,8.26
2022-09-23T04:25:24.920Z,8.24
2022-09-23T04:26:24.941Z,8.24
2022-09-23T04:27:24.908Z,8.26
2022-09-23T04:28:24.901Z,8.26
2022-09-23T04:29:24.957Z,8.24
2022-09-23T04:30:24.903Z,8.23
2022-09-23T04:31:24.906Z,8.20
2022-09-23T04:32:24.853Z,8.20
2022-09-23T04:33:24.828Z,8.19
2022-09-23T04:34:24.868Z,8.19
2022-09-23T04:35:24.830Z,8.18
2022-09-23T04:36:24.828Z,8.18
2022-09-23T04:37:24.788Z,8.16
2022-09-23T04:38:24.790Z,8.15
2022-09-23T04:39:24.807Z,8.13
2022-09-23T04:40:24.850Z,8.12
2022-09-23T04:41:24.752Z,8.12
2022-09-23T04:42:24.749Z,8.10
2022-09-23T04:43:24.721Z,8.08
2022-09-23T04:44:24.754Z,8.08
2022-09-23T04:45:24.738Z,8.06
2022-09-23T04:46:24.750Z,8.03
2022-09-23T04:47:24.680Z,8.00
2022-09-23T04:48:24.689Z,7.98
2022-09-23T04:49:25.545Z,7.94
2022-09-23T04:50:24.670Z,7.91
2022-09-23T04:51:24.654Z,7.88
2022-09-23T04:52:24.633Z,7.87
2022-09-23T04:53:24.622Z,7.83
2022-09-23T04:54:24.609Z,7.82
2022-09-23T04:55:24.629Z,7.80
2022-09-23T04:56:24.591Z,7.80
2022-09-23T04:57:24.594Z,7.79
2022-09-23T04:58:24.571Z,7.76
2022-09-23T04:59:24.542Z,7.77
2022-09-23T05:00:24.553Z,7.75
2022-09-23T05:01:24.607Z,7.75
2022-09-23T05:02:24.712Z,7.73
2022-09-23T05:03:24.502Z,7.72
2022-09-23T05:04:24.490Z,7.70
2022-09-23T05:05:24.477Z,7.70
2022-09-23T05:06:24.521Z,7.69
2022-09-23T05:07:24.458Z,7.67
2022-09-23T05:08:24.450Z,7.69
2022-09-23T05:09:24.450Z,7.66
2022-09-23T05:10:24.517Z,7.67
2022-09-23T05:11:24.401Z,7.61
2022-09-23T05:12:24.458Z,7.66
2022-09-23T05:13:24.394Z,7.63
2022-09-23T05:14:24.402Z,7.63
2022-09-23T05:15:24.362Z,7.66
2022-09-23T05:16:24.456Z,7.66
2022-09-23T05:17:24.362Z,7.63
2022-09-23T05:18:24.355Z,7.63
2022-09-23T05:19:24.330Z,7.61
2022-09-23T05:20:24.319Z,7.66
2022-09-23T05:21:24.322Z,7.67
2022-09-23T05:22:24.311Z,7.63
2022-09-23T05:23:24.305Z,7.66
2022-09-23T05:24:24.270Z,7.66
2022-09-23T05:25:24.275Z,7.67
2022-09-23T05:26:24.243Z,7.67
2022-09-23T05:27:24.230Z,7.66
2022-09-23T05:28:24.251Z,7.66
2022-09-23T05:29:24.230Z,7.67
2022-09-23T05:30:24.214Z,7.67
2022-09-23T05:31:24.243Z,7.69
2022-09-23T05:32:24.171Z,7.69
2022-09-23T05:33:24.190Z,7.67
2022-09-23T05:34:24.171Z,7.69
2022-09-23T05:35:24.170Z,7.67
2022-09-23T05:36:24.130Z,7.69
2022-09-23T05:37:24.123Z,7.67
2022-09-23T05:38:24.150Z,7.67
2022-09-23T05:39:24.139Z,7.67
2022-09-23T05:40:24.202Z,7.67
2022-09-23T05:41:24.150Z,7.67
2022-09-23T05:42:24.150Z,7.67
2022-09-23T05:43:24.218Z,7.67
2022-09-23T05:44:24.210Z,7.67
2022-09-23T05:45:26.265Z,7.67
2022-09-23T05:46:24.278Z,7.69
2022-09-23T05:47:24.190Z,7.67
2022-09-23T05:48:24.199Z,7.69
2022-09-23T05:49:42.640Z,7.70
2022-09-23T05:50:24.971Z,7.70
2022-09-23T05:51:28.765Z,7.70
2022-09-23T05:52:24.945Z,7.73
2022-09-23T05:53:24.010Z,7.76
2022-09-23T05:54:23.923Z,7.77
2022-09-23T05:55:23.931Z,7.77
2022-09-23T05:56:23.934Z,7.80
2022-09-23T05:57:23.902Z,7.79
2022-09-23T05:58:23.891Z,7.82
2022-09-23T05:59:23.883Z,7.83
2022-09-23T06:00:23.858Z,7.83
2022-09-23T06:01:23.924Z,7.87
2022-09-23T06:02:23.909Z,7.87
2022-09-23T06:03:23.906Z,7.88
2022-09-23T06:04:23.811Z,7.90
2022-09-23T06:05:23.823Z,7.94
2022-09-23T06:06:23.807Z,7.94
2022-09-23T06:07:23.831Z,7.97
2022-09-23T06:08:23.765Z,8.01
2022-09-23T06:09:23.763Z,8.05
2022-09-23T06:10:23.744Z,8.06
2022-09-23T06:11:23.751Z,8.09
2022-09-23T06:12:23.739Z,8.10
2022-09-23T06:13:23.723Z,8.13
2022-09-23T06:14:23.704Z,8.16
2022-09-23T06:15:23.691Z,8.19
2022-09-23T06:16:23.752Z,8.20
2022-09-23T06:17:23.672Z,8.23
2022-09-23T06:18:23.664Z,8.26
2022-09-23T06:19:23.651Z,8.28
2022-09-23T06:20:23.644Z,8.28
2022-09-23T06:21:23.635Z,8.30
2022-09-23T06:22:23.633Z,8.31
2022-09-23T06:23:26.184Z,8.34
2022-09-23T06:24:28.603Z,8.34
2022-09-23T06:25:24.592Z,8.36
2022-09-23T06:26:23.563Z,8.37
2022-09-23T06:27:23.588Z,8.41
2022-09-23T06:28:23.543Z,8.44
2022-09-23T06:29:23.531Z,8.45
2022-09-23T06:30:23.547Z,8.46
2022-09-23T06:31:23.589Z,8.49
2022-09-23T06:32:23.523Z,8.51
2022-09-23T06:33:34.797Z,8.52
2022-09-23T06:34:24.639Z,8.55
2022-09-23T06:35:27.379Z,8.55
2022-09-23T06:36:38.633Z,8.58
2022-09-23T06:37:24.643Z,8.60
2022-09-23T06:38:23.572Z,8.63
2022-09-23T06:39:23.424Z,8.66
2022-09-23T06:40:23.508Z,8.69
2022-09-23T06:41:23.414Z,8.70
2022-09-23T06:42:23.384Z,8.71
2022-09-23T06:43:23.392Z,8.76
2022-09-23T06:44:23.376Z,8.78
2022-09-23T06:45:23.352Z,8.82
2022-09-23T06:46:23.433Z,8.82
2022-09-23T06:47:23.356Z,8.87
2022-09-23T06:48:23.331Z,8.89
2022-09-23T06:49:23.312Z,8.94
2022-09-23T06:50:23.307Z,8.94
2022-09-23T06:51:23.304Z,8.97
2022-09-23T06:52:23.292Z,9.00
2022-09-23T06:53:23.302Z,9.02
2022-09-23T06:54:23.253Z,9.04
2022-09-23T06:55:23.244Z,9.06
2022-09-23T06:56:23.232Z,9.10
2022-09-23T06:57:23.224Z,9.11
2022-09-23T06:58:23.255Z,9.16
2022-09-23T06:59:23.224Z,9.18
2022-09-23T07:00:23.176Z,9.22
2022-09-23T07:01:23.237Z,9.25
2022-09-23T07:02:23.270Z,9.26
2022-09-23T07:03:23.164Z,9.29
2022-09-23T07:04:27.284Z,9.32
2022-09-23T07:05:24.145Z,9.36
2022-09-23T07:06:23.116Z,9.39
2022-09-23T07:07:23.106Z,9.40
2022-09-23T07:08:23.097Z,9.43
2022-09-23T07:09:23.104Z,9.46
2022-09-23T07:10:23.065Z,9.47
2022-09-23T07:11:23.076Z,9.50
2022-09-23T07:12:23.066Z,9.54
2022-09-23T07:13:23.044Z,9.56
2022-09-23T07:14:23.040Z,9.58
2022-09-23T07:15:23.025Z,9.62
2022-09-23T07:16:23.104Z,9.66
2022-09-23T07:17:23.044Z,9.72
2022-09-23T07:18:22.976Z,9.73
2022-09-23T07:19:22.985Z,9.79
2022-09-23T07:20:22.959Z,9.82
2022-09-23T07:21:22.964Z,9.89
2022-09-23T07:22:22.944Z,9.94
2022-09-23T07:23:22.936Z,9.98
2022-09-23T07:24:22.906Z,10.05
2022-09-23T07:25:22.906Z,10.10
2022-09-23T07:26:22.949Z,10.16
2022-09-23T07:27:22.887Z,10.23
2022-09-23T07:28:22.866Z,10.30
2022-09-23T07:29:22.857Z,10.35
2022-09-23T07:30:25.318Z,10.41
2022-09-23T07:31:35.188Z,10.49
2022-09-23T07:32:23.864Z,10.59
2022-09-23T07:33:31.825Z,10.64
2022-09-23T07:34:23.793Z,10.74
2022-09-23T07:35:22.844Z,10.82
2022-09-23T07:36:22.898Z,10.87
2022-09-23T07:37:22.905Z,10.94
2022-09-23T07:38:22.966Z,11.02
2022-09-23T07:39:22.985Z,11.11
2022-09-23T07:40:23.076Z,11.19
2022-09-23T07:41:22.777Z,11.25
2022-09-23T07:42:22.717Z,11.36
2022-09-23T07:43:22.705Z,11.43
2022-09-23T07:44:22.693Z,11.48
2022-09-23T07:45:22.685Z,11.55
2022-09-23T07:46:22.700Z,11.63
2022-09-23T07:47:22.677Z,11.68
2022-09-23T07:48:22.653Z,11.75
2022-09-23T07:49:22.637Z,11.81
2022-09-23T07:50:22.673Z,11.86
2022-09-23T07:51:22.642Z,11.94
2022-09-23T07:52:22.586Z,11.99
2022-09-23T07:53:22.597Z,12.06
2022-09-23T07:54:22.576Z,12.15
2022-09-23T07:55:22.578Z,12.22
2022-09-23T07:56:22.545Z,12.32
2022-09-23T07:57:22.570Z,12.40
2022-09-23T07:58:22.545Z,12.45
2022-09-23T07:59:22.517Z,12.53
2022-09-23T08:00:22.554Z,12.60
2022-09-23T08:01:22.615Z,12.65
2022-09-23T08:02:22.550Z,12.70
2022-09-23T08:03:22.491Z,12.78
2022-09-23T08:04:22.457Z,12.83
2022-09-23T08:05:22.466Z,12.87
2022-09-23T08:06:22.446Z,12.94
2022-09-23T08:07:22.467Z,13.01
2022-09-23T08:08:22.418Z,13.08
2022-09-23T08:09:22.421Z,13.16
2022-09-23T08:10:22.478Z,13.22
2022-09-23T08:11:22.390Z,13.31
2022-09-23T08:12:22.382Z,13.38
2022-09-23T08:13:22.381Z,13.46
2022-09-23T08:14:22.359Z,13.56
2022-09-23T08:15:22.349Z,13.62
2022-09-23T08:16:22.378Z,13.70
2022-09-23T08:17:22.329Z,13.79
2022-09-23T08:18:22.357Z,13.87
2022-09-23T08:19:22.297Z,13.97
2022-09-23T08:20:22.394Z,14.05
2022-09-23T08:21:22.276Z,14.14
2022-09-23T08:22:22.257Z,14.23
2022-09-23T08:23:22.269Z,14.30
2022-09-23T08:24:22.221Z,14.44
2022-09-23T08:25:22.770Z,14.54
2022-09-23T08:26:22.602Z,14.66
2022-09-23T08:27:22.219Z,14.86
2022-09-23T08:28:22.209Z,15.07
2022-09-23T08:29:22.177Z,15.06
2022-09-23T08:30:22.209Z,15.14
2022-09-23T08:31:22.180Z,15.24
2022-09-23T08:32:22.150Z,15.33
2022-09-23T08:33:23.615Z,15.39
2022-09-23T08:34:22.130Z,15.24
2022-09-23T08:35:22.117Z,15.22
2022-09-23T08:36:22.109Z,15.18
2022-09-23T08:37:22.102Z,15.11
2022-09-23T08:38:22.102Z,15.17
2022-09-23T08:39:22.074Z,15.21
2022-09-23T08:40:22.212Z,15.22
2022-09-23T08:41:22.042Z,15.22
2022-09-23T08:42:22.029Z,15.36
2022-09-23T08:43:22.043Z,15.42
2022-09-23T08:44:22.023Z,15.46
2022-09-23T08:45:21.990Z,15.62
2022-09-23T08:46:22.094Z,15.88
2022-09-23T08:47:21.981Z,15.91
2022-09-23T08:48:21.971Z,15.95
2022-09-23T08:49:21.983Z,16.04
2022-09-23T08:50:22.005Z,16.04
2022-09-23T08:51:21.942Z,16.09
2022-09-23T08:52:21.910Z,16.10
2022-09-23T08:53:21.926Z,15.98
2022-09-23T08:54:21.896Z,15.83
2022-09-23T08:55:21.915Z,15.82
2022-09-23T08:56:21.873Z,15.88
2022-09-23T08:57:21.873Z,16.15
2022-09-23T08:58:26.168Z,16.17
2022-09-23T08:59:21.877Z,16.09
2022-09-23T09:00:21.850Z,16.10
2022-09-23T09:01:21.842Z,16.09
2022-09-23T09:02:21.844Z,16.20
2022-09-23T09:03:21.793Z,16.29
2022-09-23T09:04:21.806Z,16.36
2022-09-23T09:05:21.776Z,16.39
2022-09-23T09:06:21.754Z,16.41
2022-09-23T09:07:36.185Z,16.36
2022-09-23T09:08:22.740Z,16.35
2022-09-23T09:09:21.746Z,16.35
2022-09-23T09:10:21.747Z,16.36
2022-09-23T09:11:21.755Z,16.41
2022-09-23T09:12:21.819Z,16.29
2022-09-23T09:13:21.794Z,16.23
2022-09-23T09:14:21.806Z,16.24
2022-09-23T09:15:24.822Z,16.29
2022-09-23T09:16:41.792Z,16.24
2022-09-23T09:17:22.647Z,16.32
2022-09-23T09:18:21.727Z,16.42
2022-09-23T09:19:21.788Z,16.50
2022-09-23T09:20:21.866Z,16.57
2022-09-23T09:21:21.878Z,16.50
2022-09-23T09:22:21.891Z,16.54
2022-09-23T09:23:21.861Z,16.61
2022-09-23T09:24:21.849Z,16.69
2022-09-23T09:25:21.846Z,16.66
2022-09-23T09:26:21.946Z,16.72
2022-09-23T09:27:21.890Z,16.76
2022-09-23T09:28:21.941Z,16.75
2022-09-23T09:29:34.834Z,16.78
2022-09-23T09:30:22.484Z,16.76
2022-09-23T09:31:22.170Z,16.76
2022-09-23T09:32:21.458Z,16.71
2022-09-23T09:33:21.479Z,16.66
2022-09-23T09:34:21.440Z,16.60
2022-09-23T09:35:21.467Z,16.60
2022-09-23T09:36:21.411Z,16.64
2022-09-23T09:37:21.420Z,16.60
2022-09-23T09:38:21.395Z,16.58
2022-09-23T09:39:25.532Z,16.64
2022-09-23T09:40:21.423Z,16.66
2022-09-23T09:41:21.397Z,16.71
2022-09-23T09:42:21.372Z,16.72
2022-09-23T09:43:21.368Z,16.78
2022-09-23T09:44:21.328Z,16.76
2022-09-23T09:45:21.332Z,16.76
2022-09-23T09:46:21.355Z,16.74
2022-09-23T09:47:21.300Z,16.68
2022-09-23T09:48:21.315Z,16.66
2022-09-23T09:49:21.263Z,16.66
2022-09-23T09:50:21.289Z,16.72
2022-09-23T09:51:21.252Z,16.76
2022-09-23T09:52:21.243Z,16.76
2022-09-23T09:53:21.185Z,16.75
2022-09-23T09:54:21.185Z,16.76
2022-09-23T09:55:21.149Z,16.76
2022-09-23T09:56:21.147Z,16.72
2022-09-23T09:57:21.136Z,16.75
2022-09-23T09:58:21.153Z,16.75
2022-09-23T09:59:21.095Z,16.78
2022-09-23T10:00:21.108Z,16.78
2022-09-23T10:01:21.128Z,16.83
2022-09-23T10:02:21.074Z,16.86
2022-09-23T10:03:21.053Z,16.83
2022-09-23T10:04:21.069Z,16.86
2022-09-23T10:05:21.046Z,16.79
2022-09-23T10:06:21.029Z,16.83
2022-09-23T10:07:21.625Z,16.84
2022-09-23T10:08:21.008Z,16.84
2022-09-23T10:09:20.984Z,16.76
2022-09-23T10:10:32.476Z,16.72
2022-09-23T10:11:22.224Z,16.74
2022-09-23T10:12:20.955Z,16.76
2022-09-23T10:13:20.944Z,16.84
2022-09-23T10:14:20.975Z,16.89
2022-09-23T10:15:20.915Z,16.91
2022-09-23T10:16:20.932Z,16.97
2022-09-23T10:17:20.896Z,17.04
2022-09-23T10:18:20.907Z,17.06
2022-09-23T10:19:20.874Z,17.12
2022-09-23T10:20:20.895Z,17.14
2022-09-23T10:21:25.464Z,17.19
2022-09-23T10:22:22.001Z,17.16
2022-09-23T10:23:20.890Z,17.12
2022-09-23T10:24:20.834Z,17.11
2022-09-23T10:25:20.808Z,17.08
2022-09-23T10:26:20.807Z,17.09
2022-09-23T10:27:20.780Z,17.15
2022-09-23T10:28:20.789Z,17.23
2022-09-23T10:29:20.787Z,17.26
2022-09-23T10:30:20.768Z,17.26
2022-09-23T10:31:20.741Z,17.30
2022-09-23T10:32:20.750Z,17.33
2022-09-23T10:33:20.720Z,17.33
2022-09-23T10:34:20.720Z,17.33
2022-09-23T10:35:20.700Z,17.33
2022-09-23T10:36:20.690Z,17.36
2022-09-23T10:37:20.711Z,17.39
2022-09-23T10:38:20.681Z,17.45
2022-09-23T10:39:20.650Z,17.52
2022-09-23T10:40:20.701Z,17.49
2022-09-23T10:41:20.634Z,17.41
2022-09-23T10:42:20.634Z,17.33
2022-09-23T10:43:20.616Z,17.24
2022-09-23T10:44:20.613Z,17.22
2022-09-23T10:45:20.594Z,17.23
2022-09-23T10:46:20.632Z,17.29
2022-09-23T10:47:20.566Z,17.29
2022-09-23T10:48:20.555Z,17.23
2022-09-23T10:49:20.548Z,17.20
2022-09-23T10:50:20.621Z,17.16
2022-09-23T10:51:25.456Z,17.14
2022-09-23T10:52:21.522Z,17.14
2022-09-23T10:53:20.502Z,17.16
2022-09-23T10:54:20.505Z,17.19
2022-09-23T10:55:20.514Z,17.20
2022-09-23T10:56:20.472Z,17.19
2022-09-23T10:57:20.451Z,17.15
2022-09-23T10:58:20.463Z,17.15
2022-09-23T10:59:20.444Z,17.19
2022-09-23T11:00:20.434Z,17.19
2022-09-23T11:01:20.511Z,17.20
2022-09-23T11:02:20.413Z,17.22
2022-09-23T11:03:20.409Z,17.19
2022-09-23T11:04:20.813Z,17.19
2022-09-23T11:05:20.387Z,17.19
2022-09-23T11:06:20.367Z,17.20
2022-09-23T11:07:20.356Z,17.23
2022-09-23T11:08:20.349Z,17.24
2022-09-23T11:09:20.312Z,17.29
2022-09-23T11:10:41.907Z,17.30
2022-09-23T11:11:21.322Z,17.34
2022-09-23T11:12:20.322Z,17.30
2022-09-23T11:13:20.278Z,17.31
2022-09-23T11:14:20.295Z,17.38
2022-09-23T11:15:20.274Z,17.39
2022-09-23T11:16:20.311Z,17.41
2022-09-23T11:17:20.244Z,17.41
2022-09-23T11:18:20.276Z,17.38
2022-09-23T11:19:20.237Z,17.36
2022-09-23T11:20:20.206Z,17.38
2022-09-23T11:21:20.199Z,17.33
2022-09-23T11:22:20.201Z,17.36
2022-09-23T11:23:20.193Z,17.38
2022-09-23T11:24:20.170Z,17.44
2022-09-23T11:25:20.160Z,17.42
2022-09-23T11:26:20.153Z,17.46
2022-09-23T11:27:20.301Z,17.46
2022-09-23T11:28:20.140Z,17.46
2022-09-23T11:29:20.128Z,17.46
2022-09-23T11:30:20.131Z,17.48
2022-09-23T11:31:20.170Z,17.46
2022-09-23T11:32:20.093Z,17.39
2022-09-23T11:33:20.103Z,17.42
2022-09-23T11:34:20.268Z,17.44
2022-09-23T11:35:20.041Z,17.45
2022-09-23T11:36:20.234Z,17.45
2022-09-23T11:37:20.046Z,17.46
2022-09-23T11:38:20.054Z,17.45
2022-09-23T11:39:19.995Z,17.45
2022-09-23T11:40:20.017Z,17.46
2022-09-23T11:41:19.975Z,17.46
2022-09-23T11:42:19.975Z,17.45
2022-09-23T11:43:19.948Z,17.45
2022-09-23T11:44:19.975Z,17.44
2022-09-23T11:45:19.937Z,17.45
2022-09-23T11:46:19.976Z,17.51
2022-09-23T11:47:19.911Z,17.57
2022-09-23T11:48:19.909Z,17.64
2022-09-23T11:49:19.909Z,17.70
2022-09-23T11:50:20.457Z,17.76
2022-09-23T11:51:19.870Z,17.78
2022-09-23T11:52:19.889Z,17.82
2022-09-23T11:53:19.851Z,17.86
2022-09-23T11:54:20.836Z,17.90
2022-09-23T11:55:22.966Z,17.97
2022-09-23T11:56:31.371Z,18.00
2022-09-23T11:57:20.812Z,18.01
2022-09-23T11:58:25.756Z,18.03
2022-09-23T11:59:29.989Z,18.10
2022-09-23T12:00:20.799Z,18.15
2022-09-23T12:01:29.289Z,18.23
2022-09-23T12:02:22.989Z,18.25
2022-09-23T12:03:20.281Z,18.29
2022-09-23T12:04:21.303Z,18.26
2022-09-23T12:05:19.909Z,18.23
2022-09-23T12:06:19.732Z,18.29
2022-09-23T12:07:19.785Z,18.31
2022-09-23T12:08:19.699Z,18.29
2022-09-23T12:09:31.002Z,18.38
2022-09-23T12:10:20.669Z,18.47
2022-09-23T12:11:19.645Z,18.60
2022-09-23T12:12:21.970Z,18.66
2022-09-23T12:13:20.626Z,18.63
2022-09-23T12:14:19.638Z,18.62
2022-09-23T12:15:19.619Z,18.66
2022-09-23T12:16:19.661Z,18.73
2022-09-23T12:17:19.606Z,18.84
2022-09-23T12:18:22.932Z,18.89
2022-09-23T12:19:19.614Z,19.02
2022-09-23T12:20:19.571Z,19.14
2022-09-23T12:22:20.547Z,19.36
2022-09-23T12:23:19.507Z,19.40
2022-09-23T12:24:19.529Z,19.47
2022-09-23T12:25:19.501Z,19.52
2022-09-23T12:26:19.511Z,19.62
2022-09-23T12:27:19.480Z,19.66
2022-09-23T12:28:19.481Z,19.67
2022-09-23T12:29:19.537Z,19.66
2022-09-23T12:30:19.461Z,19.66
2022-09-23T12:31:19.469Z,19.64
2022-09-23T12:32:19.444Z,19.59
2022-09-23T12:33:19.393Z,19.54
2022-09-23T12:34:19.397Z,19.44
2022-09-23T12:35:19.386Z,19.40
2022-09-23T12:36:19.378Z,19.40
2022-09-23T12:37:19.377Z,19.37
2022-09-23T12:38:19.365Z,19.16
2022-09-23T12:39:19.339Z,19.18
2022-09-23T12:40:19.379Z,19.24
2022-09-23T12:41:19.322Z,19.33
2022-09-23T12:42:19.318Z,19.44
2022-09-23T12:43:19.287Z,19.51
2022-09-23T12:44:19.299Z,19.59
2022-09-23T12:45:19.326Z,19.67
2022-09-23T12:46:19.314Z,19.76
2022-09-23T12:47:19.289Z,19.86
2022-09-23T12:48:19.276Z,20.00
2022-09-23T12:49:19.247Z,20.07
2022-09-23T12:50:23.710Z,20.14
2022-09-23T12:51:20.212Z,20.19
2022-09-23T12:52:19.281Z,20.29
2022-09-23T12:53:19.280Z,20.26
2022-09-23T12:54:19.391Z,20.24
2022-09-23T12:55:19.292Z,20.28
2022-09-23T12:56:19.339Z,20.25
2022-09-23T12:57:19.355Z,20.13
2022-09-23T12:58:19.324Z,20.11
2022-09-23T12:59:19.292Z,20.21
2022-09-23T13:00:19.395Z,20.34
2022-09-23T13:01:19.506Z,20.48
2022-09-23T13:02:19.556Z,20.58
2022-09-23T13:03:19.473Z,20.67
2022-09-23T13:04:19.432Z,20.75
2022-09-23T13:05:19.385Z,20.69
2022-09-23T13:06:19.309Z,20.72
2022-09-23T13:07:19.222Z,20.67
2022-09-23T13:08:19.353Z,20.56